sensor_id;sensor_type;location;lat;lon;timestamp;temperature;humidity
3071;DHT22;1546;47.208;9.038;2022-12-18T00:02:04;-2.10;99.90
3071;DHT22;1546;47.208;9.038;2022-12-18T00:04:32;-1.70;99.90
3071;DHT22;1546;47.208;9.038;2022-12-18T00:06:59;-2.00;99.90
3071;DHT22;1546;47.208;9.038;2022-12-18T00:09:26;-2.10;99.90
3071;DHT22;1546;47.208;9.038;2022-12-18T00:11:53;-1.70;99.90
3071;DHT22;1546;47.208;9.038;2022-12-18T00:14:19;-1.80;99.90
3071;DHT22;1546;47.208;9.038;2022-12-18T00:16:46;-2.10;99.90
3071;DHT22;1546;47.208;9.038;2022-12-18T00:19:14;-2.20;99.90
3071;DHT22;1546;47.208;9.038;2022-12-18T00:21:43;-1.50;99.90
3071;DHT22;1546;47.208;9.038;2022-12-18T00:24:11;-1.70;99.90
3071;DHT22;1546;47.208;9.038;2022-12-18T00:26:38;-1.40;99.90
3071;DHT22;1546;47.208;9.038;2022-12-18T00:29:07;-1.90;99.90
3071;DHT22;1546;47.208;9.038;2022-12-18T00:31:34;-1.90;99.90
3071;DHT22;1546;47.208;9.038;2022-12-18T00:34:02;-2.00;99.90
3071;DHT22;1546;47.208;9.038;2022-12-18T00:36:31;-2.60;99.90
3071;DHT22;1546;47.208;9.038;2022-12-18T00:39:01;-2.00;99.90
3071;DHT22;1546;47.208;9.038;2022-12-18T00:41:28;-1.70;99.90
3071;DHT22;1546;47.208;9.038;2022-12-18T00:44:14;-2.00;99.90
3071;DHT22;1546;47.208;9.038;2022-12-18T00:46:41;-2.20;99.90
3071;DHT22;1546;47.208;9.038;2022-12-18T00:49:08;-2.00;99.90
3071;DHT22;1546;47.208;9.038;2022-12-18T00:51:38;-1.90;99.90
3071;DHT22;1546;47.208;9.038;2022-12-18T00:54:06;-1.80;99.90
3071;DHT22;1546;47.208;9.038;2022-12-18T00:56:34;-1.90;99.90
3071;DHT22;1546;47.208;9.038;2022-12-18T00:59:01;-1.90;99.90
3071;DHT22;1546;47.208;9.038;2022-12-18T01:01:28;-1.70;99.90
3071;DHT22;1546;47.208;9.038;2022-12-18T01:03:57;-2.10;99.90
3071;DHT22;1546;47.208;9.038;2022-12-18T01:06:25;-2.10;99.90
3071;DHT22;1546;47.208;9.038;2022-12-18T01:08:52;-2.50;99.90
3071;DHT22;1546;47.208;9.038;2022-12-18T01:11:22;-2.20;99.90
3071;DHT22;1546;47.208;9.038;2022-12-18T01:13:49;-1.70;99.90
3071;DHT22;1546;47.208;9.038;2022-12-18T01:16:18;-1.50;99.90
3071;DHT22;1546;47.208;9.038;2022-12-18T01:18:45;-3.10;99.90
3071;DHT22;1546;47.208;9.038;2022-12-18T01:21:13;-2.20;99.90
3071;DHT22;1546;47.208;9.038;2022-12-18T01:23:40;-2.40;99.90
3071;DHT22;1546;47.208;9.038;2022-12-18T01:26:11;-0.90;99.90
3071;DHT22;1546;47.208;9.038;2022-12-18T01:28:40;-2.70;99.90
3071;DHT22;1546;47.208;9.038;2022-12-18T01:31:14;-1.90;99.90
3071;DHT22;1546;47.208;9.038;2022-12-18T01:33:42;-2.30;99.90
3071;DHT22;1546;47.208;9.038;2022-12-18T01:36:14;-2.30;99.90
3071;DHT22;1546;47.208;9.038;2022-12-18T01:38:42;-2.30;99.90
3071;DHT22;1546;47.208;9.038;2022-12-18T01:41:09;-2.90;99.90
3071;DHT22;1546;47.208;9.038;2022-12-18T01:43:45;-2.60;99.90
3071;DHT22;1546;47.208;9.038;2022-12-18T01:46:13;-2.50;99.90
3071;DHT22;1546;47.208;9.038;2022-12-18T01:48:42;-1.30;99.90
3071;DHT22;1546;47.208;9.038;2022-12-18T01:51:10;-2.40;99.90
3071;DHT22;1546;47.208;9.038;2022-12-18T01:53:39;-2.60;99.90
3071;DHT22;1546;47.208;9.038;2022-12-18T01:56:07;-2.60;99.90
3071;DHT22;1546;47.208;9.038;2022-12-18T01:58:39;-2.70;99.90
3071;DHT22;1546;47.208;9.038;2022-12-18T02:01:09;-2.00;99.90
3071;DHT22;1546;47.208;9.038;2022-12-18T02:03:36;-2.20;99.90
3071;DHT22;1546;47.208;9.038;2022-12-18T02:06:07;-2.70;99.90
3071;DHT22;1546;47.208;9.038;2022-12-18T02:08:42;-2.30;99.90
3071;DHT22;1546;47.208;9.038;2022-12-18T02:11:17;-4.20;99.90
3071;DHT22;1546;47.208;9.038;2022-12-18T02:13:50;-1.50;99.90
3071;DHT22;1546;47.208;9.038;2022-12-18T02:16:25;-2.40;99.90
3071;DHT22;1546;47.208;9.038;2022-12-18T02:18:58;-2.40;99.90
3071;DHT22;1546;47.208;9.038;2022-12-18T02:21:32;-2.50;99.90
3071;DHT22;1546;47.208;9.038;2022-12-18T02:24:17;-2.70;99.90
3071;DHT22;1546;47.208;9.038;2022-12-18T02:26:48;-2.50;99.90
3071;DHT22;1546;47.208;9.038;2022-12-18T02:29:20;-2.70;99.90
3071;DHT22;1546;47.208;9.038;2022-12-18T02:31:51;-2.40;99.90
3071;DHT22;1546;47.208;9.038;2022-12-18T02:34:20;-1.80;99.90
3071;DHT22;1546;47.208;9.038;2022-12-18T02:36:50;-2.40;99.90
3071;DHT22;1546;47.208;9.038;2022-12-18T02:39:19;-2.30;99.90
3071;DHT22;1546;47.208;9.038;2022-12-18T02:41:48;-1.30;99.90
3071;DHT22;1546;47.208;9.038;2022-12-18T02:44:15;-3.20;99.90
3071;DHT22;1546;47.208;9.038;2022-12-18T02:46:43;-2.70;99.90
3071;DHT22;1546;47.208;9.038;2022-12-18T02:49:20;-2.60;99.90
3071;DHT22;1546;47.208;9.038;2022-12-18T02:51:53;-2.60;99.90
3071;DHT22;1546;47.208;9.038;2022-12-18T02:54:31;-2.60;99.90
3071;DHT22;1546;47.208;9.038;2022-12-18T02:57:11;-2.40;99.90
3071;DHT22;1546;47.208;9.038;2022-12-18T02:59:45;-2.50;99.90
3071;DHT22;1546;47.208;9.038;2022-12-18T03:02:19;-2.50;99.90
3071;DHT22;1546;47.208;9.038;2022-12-18T03:04:51;-1.90;99.90
3071;DHT22;1546;47.208;9.038;2022-12-18T03:07:26;-2.50;99.90
3071;DHT22;1546;47.208;9.038;2022-12-18T03:09:55;-2.50;99.90
3071;DHT22;1546;47.208;9.038;2022-12-18T03:12:30;-2.60;99.90
3071;DHT22;1546;47.208;9.038;2022-12-18T03:15:00;-2.60;99.90
3071;DHT22;1546;47.208;9.038;2022-12-18T03:17:31;-2.60;99.90
3071;DHT22;1546;47.208;9.038;2022-12-18T03:20:01;-2.70;99.90
3071;DHT22;1546;47.208;9.038;2022-12-18T03:22:31;-2.70;99.90
3071;DHT22;1546;47.208;9.038;2022-12-18T03:25:00;-2.80;99.90
3071;DHT22;1546;47.208;9.038;2022-12-18T03:27:31;-2.70;99.90
3071;DHT22;1546;47.208;9.038;2022-12-18T03:30:02;-2.60;99.90
3071;DHT22;1546;47.208;9.038;2022-12-18T03:32:38;-2.60;99.90
3071;DHT22;1546;47.208;9.038;2022-12-18T03:35:07;-2.40;99.90
3071;DHT22;1546;47.208;9.038;2022-12-18T03:37:34;-2.60;99.90
3071;DHT22;1546;47.208;9.038;2022-12-18T03:40:02;-3.20;99.90
3071;DHT22;1546;47.208;9.038;2022-12-18T03:42:35;-2.40;99.90
3071;DHT22;1546;47.208;9.038;2022-12-18T03:45:09;-2.60;99.90
3071;DHT22;1546;47.208;9.038;2022-12-18T03:47:41;-2.20;99.90
3071;DHT22;1546;47.208;9.038;2022-12-18T03:50:14;-2.60;99.90
3071;DHT22;1546;47.208;9.038;2022-12-18T03:52:46;-2.60;99.90
3071;DHT22;1546;47.208;9.038;2022-12-18T03:55:17;-2.70;99.90
3071;DHT22;1546;47.208;9.038;2022-12-18T03:57:46;-2.60;99.90
3071;DHT22;1546;47.208;9.038;2022-12-18T04:00:16;-2.50;99.90
3071;DHT22;1546;47.208;9.038;2022-12-18T04:02:46;-2.40;99.90
3071;DHT22;1546;47.208;9.038;2022-12-18T04:05:14;-2.40;99.90
3071;DHT22;1546;47.208;9.038;2022-12-18T04:07:43;-3.00;99.90
3071;DHT22;1546;47.208;9.038;2022-12-18T04:10:12;-2.40;99.90
3071;DHT22;1546;47.208;9.038;2022-12-18T04:12:39;-2.90;99.90
3071;DHT22;1546;47.208;9.038;2022-12-18T04:15:08;-2.00;99.90
3071;DHT22;1546;47.208;9.038;2022-12-18T04:17:35;-2.00;99.90
3071;DHT22;1546;47.208;9.038;2022-12-18T04:20:03;-2.00;99.90
3071;DHT22;1546;47.208;9.038;2022-12-18T04:22:30;-1.90;99.90
3071;DHT22;1546;47.208;9.038;2022-12-18T04:24:57;-1.10;99.90
3071;DHT22;1546;47.208;9.038;2022-12-18T04:27:24;-1.60;99.90
3071;DHT22;1546;47.208;9.038;2022-12-18T04:29:51;-1.90;99.90
3071;DHT22;1546;47.208;9.038;2022-12-18T04:32:19;-1.70;99.90
3071;DHT22;1546;47.208;9.038;2022-12-18T04:34:46;-1.80;99.90
3071;DHT22;1546;47.208;9.038;2022-12-18T04:37:12;-1.70;99.90
3071;DHT22;1546;47.208;9.038;2022-12-18T04:39:39;-1.10;99.90
3071;DHT22;1546;47.208;9.038;2022-12-18T04:42:06;-1.70;99.90
3071;DHT22;1546;47.208;9.038;2022-12-18T04:44:33;-1.60;99.90
3071;DHT22;1546;47.208;9.038;2022-12-18T04:47:00;-1.60;99.90
3071;DHT22;1546;47.208;9.038;2022-12-18T04:49:28;-1.60;99.90
3071;DHT22;1546;47.208;9.038;2022-12-18T04:51:54;-1.50;99.90
3071;DHT22;1546;47.208;9.038;2022-12-18T04:54:21;-1.20;99.90
3071;DHT22;1546;47.208;9.038;2022-12-18T04:56:48;-0.50;99.90
3071;DHT22;1546;47.208;9.038;2022-12-18T04:59:15;-1.00;99.90
3071;DHT22;1546;47.208;9.038;2022-12-18T05:01:42;-1.40;99.90
3071;DHT22;1546;47.208;9.038;2022-12-18T05:04:08;-0.80;99.90
3071;DHT22;1546;47.208;9.038;2022-12-18T05:06:36;-0.80;99.90
3071;DHT22;1546;47.208;9.038;2022-12-18T05:09:03;-0.60;99.90
3071;DHT22;1546;47.208;9.038;2022-12-18T05:11:30;-0.70;99.90
3071;DHT22;1546;47.208;9.038;2022-12-18T05:13:57;-0.60;99.90
3071;DHT22;1546;47.208;9.038;2022-12-18T05:16:24;-1.20;99.90
3071;DHT22;1546;47.208;9.038;2022-12-18T05:18:51;-0.80;99.90
3071;DHT22;1546;47.208;9.038;2022-12-18T05:21:18;-0.90;99.90
3071;DHT22;1546;47.208;9.038;2022-12-18T05:23:46;-0.90;99.90
3071;DHT22;1546;47.208;9.038;2022-12-18T05:26:15;-0.60;99.90
3071;DHT22;1546;47.208;9.038;2022-12-18T05:28:42;-0.80;99.90
3071;DHT22;1546;47.208;9.038;2022-12-18T05:31:09;-0.90;99.90
3071;DHT22;1546;47.208;9.038;2022-12-18T05:33:37;-1.10;99.90
3071;DHT22;1546;47.208;9.038;2022-12-18T05:36:05;-1.10;99.90
3071;DHT22;1546;47.208;9.038;2022-12-18T05:38:34;-1.10;99.90
3071;DHT22;1546;47.208;9.038;2022-12-18T05:41:03;-1.30;99.90
3071;DHT22;1546;47.208;9.038;2022-12-18T05:43:30;-1.30;99.90
3071;DHT22;1546;47.208;9.038;2022-12-18T05:45:57;-1.60;99.90
3071;DHT22;1546;47.208;9.038;2022-12-18T05:48:24;-1.60;99.90
3071;DHT22;1546;47.208;9.038;2022-12-18T05:50:51;-1.80;99.90
3071;DHT22;1546;47.208;9.038;2022-12-18T05:53:19;-1.90;99.90
3071;DHT22;1546;47.208;9.038;2022-12-18T05:55:46;-2.00;99.90
3071;DHT22;1546;47.208;9.038;2022-12-18T05:58:15;-2.00;99.90
3071;DHT22;1546;47.208;9.038;2022-12-18T06:00:44;-2.10;99.90
3071;DHT22;1546;47.208;9.038;2022-12-18T06:03:12;-2.30;99.90
3071;DHT22;1546;47.208;9.038;2022-12-18T06:05:41;-2.50;99.90
3071;DHT22;1546;47.208;9.038;2022-12-18T06:08:08;-2.40;99.90
3071;DHT22;1546;47.208;9.038;2022-12-18T06:10:36;-2.40;99.90
3071;DHT22;1546;47.208;9.038;2022-12-18T06:13:03;-2.40;99.90
3071;DHT22;1546;47.208;9.038;2022-12-18T06:15:32;-2.20;99.90
3071;DHT22;1546;47.208;9.038;2022-12-18T06:18:00;-3.00;99.90
3071;DHT22;1546;47.208;9.038;2022-12-18T06:20:27;-2.40;99.90
3071;DHT22;1546;47.208;9.038;2022-12-18T06:22:56;-1.90;99.90
3071;DHT22;1546;47.208;9.038;2022-12-18T06:25:23;-2.50;99.90
3071;DHT22;1546;47.208;9.038;2022-12-18T06:27:50;-2.50;99.90
3071;DHT22;1546;47.208;9.038;2022-12-18T06:30:17;-2.60;99.90
3071;DHT22;1546;47.208;9.038;2022-12-18T06:32:45;-2.70;99.90
3071;DHT22;1546;47.208;9.038;2022-12-18T06:35:12;-2.70;99.90
3071;DHT22;1546;47.208;9.038;2022-12-18T06:37:39;-2.30;99.90
3071;DHT22;1546;47.208;9.038;2022-12-18T06:40:07;-2.60;99.90
3071;DHT22;1546;47.208;9.038;2022-12-18T06:42:34;-2.60;99.90
3071;DHT22;1546;47.208;9.038;2022-12-18T06:45:01;-2.40;99.90
3071;DHT22;1546;47.208;9.038;2022-12-18T06:47:28;-2.70;99.90
3071;DHT22;1546;47.208;9.038;2022-12-18T06:49:56;-2.70;99.90
3071;DHT22;1546;47.208;9.038;2022-12-18T06:52:23;-2.70;99.90
3071;DHT22;1546;47.208;9.038;2022-12-18T06:54:50;-2.80;99.90
3071;DHT22;1546;47.208;9.038;2022-12-18T06:57:16;-2.80;99.90
3071;DHT22;1546;47.208;9.038;2022-12-18T06:59:43;-2.90;99.90
3071;DHT22;1546;47.208;9.038;2022-12-18T07:02:11;-2.80;99.90
3071;DHT22;1546;47.208;9.038;2022-12-18T07:04:38;-2.80;99.90
3071;DHT22;1546;47.208;9.038;2022-12-18T07:07:06;-2.90;99.90
3071;DHT22;1546;47.208;9.038;2022-12-18T07:09:33;-2.90;99.90
3071;DHT22;1546;47.208;9.038;2022-12-18T07:12:00;-2.90;99.90
3071;DHT22;1546;47.208;9.038;2022-12-18T07:14:27;-2.80;99.90
3071;DHT22;1546;47.208;9.038;2022-12-18T07:16:54;-2.70;99.90
3071;DHT22;1546;47.208;9.038;2022-12-18T07:19:20;-2.60;99.90
3071;DHT22;1546;47.208;9.038;2022-12-18T07:21:50;-2.60;99.90
3071;DHT22;1546;47.208;9.038;2022-12-18T07:24:19;-2.60;99.90
3071;DHT22;1546;47.208;9.038;2022-12-18T07:26:46;-3.20;99.90
3071;DHT22;1546;47.208;9.038;2022-12-18T07:29:13;-2.60;99.90
3071;DHT22;1546;47.208;9.038;2022-12-18T07:31:40;-2.70;99.90
3071;DHT22;1546;47.208;9.038;2022-12-18T07:34:10;-1.80;99.90
3071;DHT22;1546;47.208;9.038;2022-12-18T07:36:37;-2.70;99.90
3071;DHT22;1546;47.208;9.038;2022-12-18T07:39:04;-2.70;99.90
3071;DHT22;1546;47.208;9.038;2022-12-18T07:41:32;-2.70;99.90
3071;DHT22;1546;47.208;9.038;2022-12-18T07:43:59;-2.60;99.90
3071;DHT22;1546;47.208;9.038;2022-12-18T07:46:25;-2.60;99.90
3071;DHT22;1546;47.208;9.038;2022-12-18T07:48:52;-2.50;99.90
3071;DHT22;1546;47.208;9.038;2022-12-18T07:51:19;-2.50;99.90
3071;DHT22;1546;47.208;9.038;2022-12-18T07:53:46;-2.40;99.90
3071;DHT22;1546;47.208;9.038;2022-12-18T07:56:13;-2.20;99.90
3071;DHT22;1546;47.208;9.038;2022-12-18T07:58:41;-2.20;99.90
3071;DHT22;1546;47.208;9.038;2022-12-18T08:01:10;-2.50;99.90
3071;DHT22;1546;47.208;9.038;2022-12-18T08:03:38;-2.10;99.90
3071;DHT22;1546;47.208;9.038;2022-12-18T08:06:07;-2.10;99.90
3071;DHT22;1546;47.208;9.038;2022-12-18T08:08:35;-1.90;99.90
3071;DHT22;1546;47.208;9.038;2022-12-18T08:11:02;-2.00;99.90
3071;DHT22;1546;47.208;9.038;2022-12-18T08:13:30;-1.70;99.90
3071;DHT22;1546;47.208;9.038;2022-12-18T08:16:01;-1.90;99.90
3071;DHT22;1546;47.208;9.038;2022-12-18T08:18:29;-1.90;99.90
3071;DHT22;1546;47.208;9.038;2022-12-18T08:21:07;-1.80;99.90
3071;DHT22;1546;47.208;9.038;2022-12-18T08:23:34;-1.60;99.90
3071;DHT22;1546;47.208;9.038;2022-12-18T08:26:01;-1.80;99.90
3071;DHT22;1546;47.208;9.038;2022-12-18T08:28:28;-1.60;99.90
3071;DHT22;1546;47.208;9.038;2022-12-18T08:30:55;-1.00;99.90
3071;DHT22;1546;47.208;9.038;2022-12-18T08:33:23;-1.60;99.90
3071;DHT22;1546;47.208;9.038;2022-12-18T08:35:50;-1.60;99.90
3071;DHT22;1546;47.208;9.038;2022-12-18T08:38:17;-1.50;99.90
3071;DHT22;1546;47.208;9.038;2022-12-18T08:40:44;-1.70;99.90
3071;DHT22;1546;47.208;9.038;2022-12-18T08:43:11;-1.70;99.90
3071;DHT22;1546;47.208;9.038;2022-12-18T08:45:56;-1.70;99.90
3071;DHT22;1546;47.208;9.038;2022-12-18T08:48:24;-1.70;99.90
3071;DHT22;1546;47.208;9.038;2022-12-18T08:50:55;-1.60;99.90
3071;DHT22;1546;47.208;9.038;2022-12-18T08:53:21;-1.50;99.90
3071;DHT22;1546;47.208;9.038;2022-12-18T08:55:51;-1.30;99.90
3071;DHT22;1546;47.208;9.038;2022-12-18T08:58:19;-1.10;99.90
3071;DHT22;1546;47.208;9.038;2022-12-18T09:00:46;-0.90;99.90
3071;DHT22;1546;47.208;9.038;2022-12-18T09:03:13;-0.70;99.90
3071;DHT22;1546;47.208;9.038;2022-12-18T09:05:42;-0.70;99.90
3071;DHT22;1546;47.208;9.038;2022-12-18T09:08:09;-0.50;99.90
3071;DHT22;1546;47.208;9.038;2022-12-18T09:10:42;0.00;99.90
3071;DHT22;1546;47.208;9.038;2022-12-18T09:13:10;-0.10;99.90
3071;DHT22;1546;47.208;9.038;2022-12-18T09:15:40;-0.10;99.90
3071;DHT22;1546;47.208;9.038;2022-12-18T09:18:07;0.00;99.90
3071;DHT22;1546;47.208;9.038;2022-12-18T09:20:34;0.00;99.90
3071;DHT22;1546;47.208;9.038;2022-12-18T09:23:03;0.30;99.90
3071;DHT22;1546;47.208;9.038;2022-12-18T09:25:31;0.80;99.90
3071;DHT22;1546;47.208;9.038;2022-12-18T09:27:58;1.30;99.90
3071;DHT22;1546;47.208;9.038;2022-12-18T09:30:25;1.20;99.90
3071;DHT22;1546;47.208;9.038;2022-12-18T09:32:52;1.30;99.90
3071;DHT22;1546;47.208;9.038;2022-12-18T09:35:21;1.40;99.90
3071;DHT22;1546;47.208;9.038;2022-12-18T09:37:48;2.00;99.90
3071;DHT22;1546;47.208;9.038;2022-12-18T09:40:20;2.40;99.90
3071;DHT22;1546;47.208;9.038;2022-12-18T09:42:54;2.70;99.90
3071;DHT22;1546;47.208;9.038;2022-12-18T09:45:22;2.70;99.90
3071;DHT22;1546;47.208;9.038;2022-12-18T09:47:51;3.00;99.90
3071;DHT22;1546;47.208;9.038;2022-12-18T09:50:24;3.20;99.90
3071;DHT22;1546;47.208;9.038;2022-12-18T09:52:55;3.30;99.90
3071;DHT22;1546;47.208;9.038;2022-12-18T09:55:28;3.50;99.90
3071;DHT22;1546;47.208;9.038;2022-12-18T09:58:02;3.40;99.90
3071;DHT22;1546;47.208;9.038;2022-12-18T10:00:32;3.50;99.90
3071;DHT22;1546;47.208;9.038;2022-12-18T10:03:00;3.70;99.90
3071;DHT22;1546;47.208;9.038;2022-12-18T10:05:35;3.90;99.90
3071;DHT22;1546;47.208;9.038;2022-12-18T10:08:07;4.10;99.90
3071;DHT22;1546;47.208;9.038;2022-12-18T10:10:42;4.40;99.90
3071;DHT22;1546;47.208;9.038;2022-12-18T10:13:17;4.60;99.90
3071;DHT22;1546;47.208;9.038;2022-12-18T10:15:54;4.50;99.90
3071;DHT22;1546;47.208;9.038;2022-12-18T10:18:35;4.20;99.90
3071;DHT22;1546;47.208;9.038;2022-12-18T10:21:10;3.70;99.90
3071;DHT22;1546;47.208;9.038;2022-12-18T10:23:40;3.60;99.90
3071;DHT22;1546;47.208;9.038;2022-12-18T10:26:10;3.80;99.90
3071;DHT22;1546;47.208;9.038;2022-12-18T10:28:39;5.20;97.30
3071;DHT22;1546;47.208;9.038;2022-12-18T10:31:07;4.00;99.90
3071;DHT22;1546;47.208;9.038;2022-12-18T10:33:39;4.50;99.90
3071;DHT22;1546;47.208;9.038;2022-12-18T10:36:07;5.10;99.90
3071;DHT22;1546;47.208;9.038;2022-12-18T10:38:34;5.20;99.90
3071;DHT22;1546;47.208;9.038;2022-12-18T10:41:02;5.70;99.90
3071;DHT22;1546;47.208;9.038;2022-12-18T10:43:33;6.00;99.90
3071;DHT22;1546;47.208;9.038;2022-12-18T10:46:12;6.00;99.90
3071;DHT22;1546;47.208;9.038;2022-12-18T10:48:48;5.80;99.90
3071;DHT22;1546;47.208;9.038;2022-12-18T10:51:21;6.00;99.90
3071;DHT22;1546;47.208;9.038;2022-12-18T10:53:54;6.40;99.90
3071;DHT22;1546;47.208;9.038;2022-12-18T10:56:22;6.60;95.80
3071;DHT22;1546;47.208;9.038;2022-12-18T10:58:58;7.00;93.70
3071;DHT22;1546;47.208;9.038;2022-12-18T11:01:25;6.70;96.70
3071;DHT22;1546;47.208;9.038;2022-12-18T11:04:01;6.80;99.80
3071;DHT22;1546;47.208;9.038;2022-12-18T11:06:29;7.10;92.60
3071;DHT22;1546;47.208;9.038;2022-12-18T11:09:00;7.80;99.90
3071;DHT22;1546;47.208;9.038;2022-12-18T11:11:28;7.90;99.90
3071;DHT22;1546;47.208;9.038;2022-12-18T11:14:02;8.20;94.00
3071;DHT22;1546;47.208;9.038;2022-12-18T11:16:31;7.50;93.90
3071;DHT22;1546;47.208;9.038;2022-12-18T11:19:15;8.00;92.90
3071;DHT22;1546;47.208;9.038;2022-12-18T11:21:45;8.20;96.60
3071;DHT22;1546;47.208;9.038;2022-12-18T11:24:20;8.60;92.70
3071;DHT22;1546;47.208;9.038;2022-12-18T11:26:47;8.80;95.10
3071;DHT22;1546;47.208;9.038;2022-12-18T11:29:22;8.50;94.30
3071;DHT22;1546;47.208;9.038;2022-12-18T11:31:49;8.10;95.90
3071;DHT22;1546;47.208;9.038;2022-12-18T11:34:20;7.50;94.60
3071;DHT22;1546;47.208;9.038;2022-12-18T11:36:50;7.10;94.50
3071;DHT22;1546;47.208;9.038;2022-12-18T11:39:19;7.20;99.90
3071;DHT22;1546;47.208;9.038;2022-12-18T11:41:50;7.70;99.90
3071;DHT22;1546;47.208;9.038;2022-12-18T11:44:44;8.10;99.90
3071;DHT22;1546;47.208;9.038;2022-12-18T11:47:19;9.70;99.90
3071;DHT22;1546;47.208;9.038;2022-12-18T11:49:49;9.10;95.00
3071;DHT22;1546;47.208;9.038;2022-12-18T11:52:19;9.30;97.00
3071;DHT22;1546;47.208;9.038;2022-12-18T11:57:30;9.50;95.50
3071;DHT22;1546;47.208;9.038;2022-12-18T12:00:07;8.90;94.10
3071;DHT22;1546;47.208;9.038;2022-12-18T12:03:05;9.10;91.90
3071;DHT22;1546;47.208;9.038;2022-12-18T12:05:43;9.10;92.30
3071;DHT22;1546;47.208;9.038;2022-12-18T12:08:18;9.20;92.60
3071;DHT22;1546;47.208;9.038;2022-12-18T12:10:55;9.30;92.10
3071;DHT22;1546;47.208;9.038;2022-12-18T12:13:30;9.40;90.60
3071;DHT22;1546;47.208;9.038;2022-12-18T12:16:08;9.30;90.20
3071;DHT22;1546;47.208;9.038;2022-12-18T12:18:47;9.10;90.50
3071;DHT22;1546;47.208;9.038;2022-12-18T12:21:23;9.30;90.70
3071;DHT22;1546;47.208;9.038;2022-12-18T12:23:57;9.60;86.00
3071;DHT22;1546;47.208;9.038;2022-12-18T12:26:33;9.60;87.00
3071;DHT22;1546;47.208;9.038;2022-12-18T12:29:13;9.70;90.90
3071;DHT22;1546;47.208;9.038;2022-12-18T12:34:29;9.80;95.00
3071;DHT22;1546;47.208;9.038;2022-12-18T12:39:35;8.60;90.60
3071;DHT22;1546;47.208;9.038;2022-12-18T12:42:04;8.20;82.70
3071;DHT22;1546;47.208;9.038;2022-12-18T12:44:53;8.30;85.20
3071;DHT22;1546;47.208;9.038;2022-12-18T12:47:26;9.20;86.70
3071;DHT22;1546;47.208;9.038;2022-12-18T12:49:54;9.70;82.80
3071;DHT22;1546;47.208;9.038;2022-12-18T12:52:28;9.20;88.80
3071;DHT22;1546;47.208;9.038;2022-12-18T12:54:58;8.60;82.10
3071;DHT22;1546;47.208;9.038;2022-12-18T12:57:35;8.30;84.80
3071;DHT22;1546;47.208;9.038;2022-12-18T13:00:07;7.90;83.20
3071;DHT22;1546;47.208;9.038;2022-12-18T13:02:42;7.50;91.10
3071;DHT22;1546;47.208;9.038;2022-12-18T13:05:18;7.20;92.40
3071;DHT22;1546;47.208;9.038;2022-12-18T13:07:52;7.00;92.50
3071;DHT22;1546;47.208;9.038;2022-12-18T13:10:26;6.80;90.80
3071;DHT22;1546;47.208;9.038;2022-12-18T13:12:55;6.70;94.60
3071;DHT22;1546;47.208;9.038;2022-12-18T13:15:23;6.60;97.40
3071;DHT22;1546;47.208;9.038;2022-12-18T13:20:33;8.00;93.90
3071;DHT22;1546;47.208;9.038;2022-12-18T13:23:04;7.00;99.90
3071;DHT22;1546;47.208;9.038;2022-12-18T13:25:45;7.10;99.90
3071;DHT22;1546;47.208;9.038;2022-12-18T13:28:13;6.90;86.70
3071;DHT22;1546;47.208;9.038;2022-12-18T13:30:52;6.80;89.90
3071;DHT22;1546;47.208;9.038;2022-12-18T13:33:39;6.70;87.20
3071;DHT22;1546;47.208;9.038;2022-12-18T13:36:14;6.60;90.40
3071;DHT22;1546;47.208;9.038;2022-12-18T13:38:42;8.10;91.00
3071;DHT22;1546;47.208;9.038;2022-12-18T13:41:23;6.80;98.80
3071;DHT22;1546;47.208;9.038;2022-12-18T13:43:51;6.50;91.00
3071;DHT22;1546;47.208;9.038;2022-12-18T13:46:21;6.50;91.70
3071;DHT22;1546;47.208;9.038;2022-12-18T13:48:53;6.30;91.80
3071;DHT22;1546;47.208;9.038;2022-12-18T13:51:22;5.90;92.50
3071;DHT22;1546;47.208;9.038;2022-12-18T13:53:51;5.50;93.60
3071;DHT22;1546;47.208;9.038;2022-12-18T13:56:23;5.50;93.00
3071;DHT22;1546;47.208;9.038;2022-12-18T13:59:15;5.60;94.20
3071;DHT22;1546;47.208;9.038;2022-12-18T14:01:48;6.00;94.50
3071;DHT22;1546;47.208;9.038;2022-12-18T14:04:25;6.30;95.60
3071;DHT22;1546;47.208;9.038;2022-12-18T14:06:55;6.40;92.50
3071;DHT22;1546;47.208;9.038;2022-12-18T14:09:26;6.70;92.20
3071;DHT22;1546;47.208;9.038;2022-12-18T14:11:54;6.40;95.20
3071;DHT22;1546;47.208;9.038;2022-12-18T14:14:44;6.40;94.90
3071;DHT22;1546;47.208;9.038;2022-12-18T14:17:13;6.50;95.10
3071;DHT22;1546;47.208;9.038;2022-12-18T14:19:47;6.60;94.50
3071;DHT22;1546;47.208;9.038;2022-12-18T14:22:17;7.10;94.30
3071;DHT22;1546;47.208;9.038;2022-12-18T14:24:44;6.80;94.10
3071;DHT22;1546;47.208;9.038;2022-12-18T14:27:21;6.80;93.70
3071;DHT22;1546;47.208;9.038;2022-12-18T14:29:48;6.30;93.70
3071;DHT22;1546;47.208;9.038;2022-12-18T14:32:16;5.90;93.60
3071;DHT22;1546;47.208;9.038;2022-12-18T14:34:47;5.60;94.40
3071;DHT22;1546;47.208;9.038;2022-12-18T14:37:16;5.30;93.50
3071;DHT22;1546;47.208;9.038;2022-12-18T14:39:53;4.90;93.50
3071;DHT22;1546;47.208;9.038;2022-12-18T14:42:20;4.30;92.30
3071;DHT22;1546;47.208;9.038;2022-12-18T14:44:46;4.10;92.10
3071;DHT22;1546;47.208;9.038;2022-12-18T14:47:14;3.80;92.70
3071;DHT22;1546;47.208;9.038;2022-12-18T14:49:42;3.40;93.30
3071;DHT22;1546;47.208;9.038;2022-12-18T14:52:20;3.30;94.10
3071;DHT22;1546;47.208;9.038;2022-12-18T14:54:49;3.30;94.30
3071;DHT22;1546;47.208;9.038;2022-12-18T14:57:21;3.40;94.50
3071;DHT22;1546;47.208;9.038;2022-12-18T14:59:49;4.70;95.10
3071;DHT22;1546;47.208;9.038;2022-12-18T15:02:20;3.20;94.60
3071;DHT22;1546;47.208;9.038;2022-12-18T15:04:59;3.10;94.90
3071;DHT22;1546;47.208;9.038;2022-12-18T15:07:40;3.00;95.20
3071;DHT22;1546;47.208;9.038;2022-12-18T15:10:12;2.80;95.30
3071;DHT22;1546;47.208;9.038;2022-12-18T15:12:41;2.80;95.50
3071;DHT22;1546;47.208;9.038;2022-12-18T15:15:43;2.60;95.90
3071;DHT22;1546;47.208;9.038;2022-12-18T15:18:13;2.50;96.30
3071;DHT22;1546;47.208;9.038;2022-12-18T15:20:44;2.20;96.80
3071;DHT22;1546;47.208;9.038;2022-12-18T15:23:17;2.00;97.30
3071;DHT22;1546;47.208;9.038;2022-12-18T15:25:45;1.90;98.00
3071;DHT22;1546;47.208;9.038;2022-12-18T15:28:21;1.70;98.60
3071;DHT22;1546;47.208;9.038;2022-12-18T15:31:00;1.50;99.40
3071;DHT22;1546;47.208;9.038;2022-12-18T15:33:31;1.40;99.90
3071;DHT22;1546;47.208;9.038;2022-12-18T15:36:00;1.00;99.90
3071;DHT22;1546;47.208;9.038;2022-12-18T15:38:28;1.00;99.90
3071;DHT22;1546;47.208;9.038;2022-12-18T15:40:55;0.80;99.90
3071;DHT22;1546;47.208;9.038;2022-12-18T15:43:23;0.60;99.90
3071;DHT22;1546;47.208;9.038;2022-12-18T15:46:05;0.50;99.90
3071;DHT22;1546;47.208;9.038;2022-12-18T15:48:33;0.50;99.90
3071;DHT22;1546;47.208;9.038;2022-12-18T15:51:01;0.30;99.90
3071;DHT22;1546;47.208;9.038;2022-12-18T15:53:32;0.20;99.90
3071;DHT22;1546;47.208;9.038;2022-12-18T15:55:59;0.00;99.90
3071;DHT22;1546;47.208;9.038;2022-12-18T15:58:43;0.10;99.90
3071;DHT22;1546;47.208;9.038;2022-12-18T16:01:10;0.00;99.90
3071;DHT22;1546;47.208;9.038;2022-12-18T16:03:38;-0.10;99.90
3071;DHT22;1546;47.208;9.038;2022-12-18T16:06:05;-0.10;99.90
3071;DHT22;1546;47.208;9.038;2022-12-18T16:08:33;-0.10;99.90
3071;DHT22;1546;47.208;9.038;2022-12-18T16:11:00;-0.10;99.90
3071;DHT22;1546;47.208;9.038;2022-12-18T16:13:28;0.10;99.90
3071;DHT22;1546;47.208;9.038;2022-12-18T16:15:54;-0.20;99.90
3071;DHT22;1546;47.208;9.038;2022-12-18T16:18:21;-0.30;99.90
3071;DHT22;1546;47.208;9.038;2022-12-18T16:20:48;-0.30;99.90
3071;DHT22;1546;47.208;9.038;2022-12-18T16:23:15;-0.30;99.90
3071;DHT22;1546;47.208;9.038;2022-12-18T16:25:43;-0.30;99.90
3071;DHT22;1546;47.208;9.038;2022-12-18T16:28:10;0.10;99.90
3071;DHT22;1546;47.208;9.038;2022-12-18T16:30:37;-0.10;99.90
3071;DHT22;1546;47.208;9.038;2022-12-18T16:33:03;0.30;99.90
3071;DHT22;1546;47.208;9.038;2022-12-18T16:35:30;2.30;99.90
3071;DHT22;1546;47.208;9.038;2022-12-18T16:37:57;0.50;99.90